createdAt,value
2023-05-23T00:00:02.498Z,0.00
2023-05-23T00:01:02.476Z,0.00
2023-05-23T00:02:02.483Z,0.00
2023-05-23T00:03:02.719Z,0.00
2023-05-23T00:04:02.576Z,0.00
2023-05-23T00:05:02.549Z,0.00
2023-05-23T00:06:02.416Z,0.00
2023-05-23T00:07:02.448Z,0.00
2023-05-23T00:08:02.460Z,0.00
2023-05-23T00:09:02.398Z,0.00
2023-05-23T00:10:02.401Z,0.00
2023-05-23T00:11:02.385Z,0.00
2023-05-23T00:12:02.360Z,0.00
2023-05-23T00:13:02.406Z,0.00
2023-05-23T00:14:02.333Z,0.00
2023-05-23T00:15:02.354Z,0.00
2023-05-23T00:16:02.331Z,0.00
2023-05-23T00:17:02.429Z,0.00
2023-05-23T00:18:02.384Z,0.00
2023-05-23T00:19:02.376Z,0.00
2023-05-23T00:20:02.260Z,0.00
2023-05-23T00:21:02.470Z,0.00
2023-05-23T00:22:02.286Z,0.00
2023-05-23T00:23:02.217Z,0.00
2023-05-23T00:24:02.300Z,0.00
2023-05-23T00:25:02.356Z,0.00
2023-05-23T00:26:02.213Z,0.00
2023-05-23T00:27:02.260Z,0.00
2023-05-23T00:28:02.223Z,0.00
2023-05-23T00:29:02.164Z,0.00
2023-05-23T00:30:02.229Z,0.00
2023-05-23T00:31:02.215Z,0.00
2023-05-23T00:32:02.148Z,0.00
2023-05-23T00:33:02.191Z,0.00
2023-05-23T00:34:02.113Z,0.00
2023-05-23T00:35:02.139Z,0.00
2023-05-23T00:36:02.073Z,0.00
2023-05-23T00:37:02.144Z,0.00
2023-05-23T00:38:02.189Z,0.00
2023-05-23T00:39:02.104Z,0.00
2023-05-23T00:40:02.113Z,0.00
2023-05-23T00:41:02.077Z,0.00
2023-05-23T00:42:02.017Z,0.00
2023-05-23T00:43:02.102Z,0.00
2023-05-23T00:44:02.028Z,0.00
2023-05-23T00:45:02.048Z,0.00
2023-05-23T00:46:02.046Z,0.00
2023-05-23T00:47:02.076Z,0.00
2023-05-23T00:48:02.042Z,0.00
2023-05-23T00:49:02.055Z,0.00
2023-05-23T00:50:01.960Z,0.00
2023-05-23T00:51:01.934Z,0.00
2023-05-23T00:52:01.945Z,0.00
2023-05-23T00:53:01.947Z,0.00
2023-05-23T00:54:02.093Z,0.00
2023-05-23T00:55:01.920Z,0.00
2023-05-23T00:56:01.883Z,0.00
2023-05-23T00:57:01.968Z,0.00
2023-05-23T00:58:01.857Z,0.00
2023-05-23T00:59:01.857Z,0.00
2023-05-23T01:00:01.857Z,0.00
2023-05-23T01:01:01.946Z,0.00
2023-05-23T01:02:01.878Z,0.00
2023-05-23T01:03:02.002Z,0.00
2023-05-23T01:04:01.877Z,0.00
2023-05-23T01:05:01.816Z,0.00
2023-05-23T01:06:01.749Z,0.00
2023-05-23T01:07:01.836Z,0.00
2023-05-23T01:08:01.745Z,0.00
2023-05-23T01:09:01.795Z,0.00
2023-05-23T01:10:01.731Z,0.00
2023-05-23T01:11:01.733Z,0.00
2023-05-23T01:12:01.715Z,0.00
2023-05-23T01:13:01.742Z,0.00
2023-05-23T01:14:01.852Z,0.00
2023-05-23T01:15:01.679Z,0.00
2023-05-23T01:16:03.009Z,0.00
2023-05-23T01:17:01.695Z,0.00
2023-05-23T01:18:01.649Z,0.00
2023-05-23T01:19:01.646Z,0.00
2023-05-23T01:20:01.619Z,0.00
2023-05-23T01:21:01.691Z,0.00
2023-05-23T01:22:01.612Z,0.00
2023-05-23T01:23:01.663Z,0.00
2023-05-23T01:24:01.599Z,0.00
2023-05-23T01:25:01.604Z,0.00
2023-05-23T01:26:01.576Z,0.00
2023-05-23T01:27:01.618Z,0.00
2023-05-23T01:28:01.554Z,0.00
2023-05-23T01:29:01.570Z,0.00
2023-05-23T01:30:01.495Z,0.00
2023-05-23T01:31:01.515Z,0.00
2023-05-23T01:32:01.666Z,0.00
2023-05-23T01:33:01.528Z,0.00
2023-05-23T01:34:01.481Z,0.00
2023-05-23T01:35:01.501Z,0.00
2023-05-23T01:36:01.418Z,0.00
2023-05-23T01:37:01.511Z,0.00
2023-05-23T01:38:01.432Z,0.00
2023-05-23T01:39:01.443Z,0.00
2023-05-23T01:40:01.442Z,0.00
2023-05-23T01:41:01.409Z,0.00
2023-05-23T01:42:01.371Z,0.00
2023-05-23T01:43:01.683Z,0.00
2023-05-23T01:44:01.398Z,0.00
2023-05-23T01:45:01.388Z,0.00
2023-05-23T01:46:01.423Z,0.00
2023-05-23T01:47:01.402Z,0.00
2023-05-23T01:48:01.383Z,0.00
2023-05-23T01:49:01.324Z,0.00
2023-05-23T01:50:01.316Z,0.00
2023-05-23T01:51:01.313Z,0.00
2023-05-23T01:52:01.350Z,0.00
2023-05-23T01:53:01.425Z,0.00
2023-05-23T01:54:01.291Z,0.00
2023-05-23T01:55:01.295Z,0.00
2023-05-23T01:56:01.267Z,0.00
2023-05-23T01:57:01.221Z,0.00
2023-05-23T01:58:01.228Z,0.00
2023-05-23T01:59:01.226Z,0.00
2023-05-23T02:00:01.241Z,0.00
2023-05-23T02:01:01.282Z,0.00
2023-05-23T02:02:01.209Z,0.00
2023-05-23T02:03:01.330Z,0.00
2023-05-23T02:04:01.174Z,0.00
2023-05-23T02:05:01.153Z,0.00
2023-05-23T02:06:01.137Z,0.00
2023-05-23T02:07:01.172Z,0.00
2023-05-23T02:08:01.113Z,0.00
2023-05-23T02:09:01.384Z,0.00
2023-05-23T02:10:01.083Z,0.00
2023-05-23T02:11:01.106Z,0.00
2023-05-23T02:12:01.113Z,0.00
2023-05-23T02:13:01.052Z,0.00
2023-05-23T02:14:01.067Z,0.00
2023-05-23T02:15:01.047Z,0.00
2023-05-23T02:16:01.022Z,0.00
2023-05-23T02:17:01.197Z,0.00
2023-05-23T02:18:01.129Z,0.00
2023-05-23T02:19:01.019Z,0.00
2023-05-23T02:20:00.978Z,0.00
2023-05-23T02:21:01.016Z,0.00
2023-05-23T02:22:00.981Z,0.00
2023-05-23T02:23:00.968Z,0.00
2023-05-23T02:24:00.986Z,0.00
2023-05-23T02:25:00.942Z,0.00
2023-05-23T02:26:01.029Z,0.00
2023-05-23T02:27:00.939Z,0.00
2023-05-23T02:28:00.901Z,0.00
2023-05-23T02:29:01.163Z,0.00
2023-05-23T02:30:00.953Z,0.00
2023-05-23T02:31:00.983Z,0.00
2023-05-23T02:32:00.864Z,0.00
2023-05-23T02:33:01.037Z,0.00
2023-05-23T02:34:00.850Z,0.00
2023-05-23T02:35:00.845Z,0.00
2023-05-23T02:36:00.807Z,0.00
2023-05-23T02:37:00.789Z,0.00
2023-05-23T02:38:00.900Z,0.00
2023-05-23T02:39:00.754Z,0.00
2023-05-23T02:40:00.794Z,0.00
2023-05-23T02:41:00.889Z,0.00
2023-05-23T02:42:00.733Z,0.00
2023-05-23T02:43:00.779Z,0.00
2023-05-23T02:44:00.751Z,0.00
2023-05-23T02:45:00.728Z,0.00
2023-05-23T02:46:00.734Z,0.00
2023-05-23T02:47:00.741Z,0.00
2023-05-23T02:48:00.863Z,0.00
2023-05-23T02:49:00.690Z,0.00
2023-05-23T02:50:00.604Z,1.00
2023-05-23T02:51:01.164Z,0.00
2023-05-23T02:52:00.653Z,0.00
2023-05-23T02:53:00.588Z,1.00
2023-05-23T02:54:00.717Z,1.00
2023-05-23T02:55:00.600Z,1.00
2023-05-23T02:56:00.527Z,1.00
2023-05-23T02:57:00.560Z,2.00
2023-05-23T02:58:00.521Z,2.00
2023-05-23T02:59:00.530Z,2.00
2023-05-23T03:00:00.628Z,3.00
2023-05-23T03:01:00.484Z,1.00
2023-05-23T03:02:00.586Z,2.00
2023-05-23T03:03:00.497Z,2.00
2023-05-23T03:04:00.701Z,5.00
2023-05-23T03:05:00.625Z,4.00
2023-05-23T03:06:00.597Z,4.00
2023-05-23T03:07:00.562Z,8.00
2023-05-23T03:08:00.669Z,7.00
2023-05-23T03:09:00.516Z,7.00
2023-05-23T03:10:00.499Z,11.00
2023-05-23T03:11:00.502Z,11.00
2023-05-23T03:12:00.497Z,13.00
2023-05-23T03:13:00.487Z,15.00
2023-05-23T03:14:00.547Z,18.00
2023-05-23T03:15:00.512Z,19.00
2023-05-23T03:16:00.560Z,24.00
2023-05-23T03:17:00.472Z,27.00
2023-05-23T03:18:00.470Z,31.00
2023-05-23T03:19:00.479Z,33.00
2023-05-23T03:20:00.373Z,38.00
2023-05-23T03:21:00.376Z,42.00
2023-05-23T03:22:00.429Z,47.00
2023-05-23T03:23:00.373Z,51.00
2023-05-23T03:24:00.462Z,61.00
2023-05-23T03:25:00.362Z,63.00
2023-05-23T03:26:00.386Z,75.00
2023-05-23T03:27:00.324Z,84.00
2023-05-23T03:28:00.346Z,91.00
2023-05-23T03:29:00.345Z,96.00
2023-05-23T03:30:00.307Z,105.00
2023-05-23T03:31:00.400Z,119.00
2023-05-23T03:32:00.391Z,128.00
2023-05-23T03:33:00.317Z,136.00
2023-05-23T03:34:00.330Z,150.00
2023-05-23T03:35:00.256Z,164.00
2023-05-23T03:36:00.278Z,173.00
2023-05-23T03:37:00.264Z,193.00
2023-05-23T03:38:00.209Z,207.00
2023-05-23T03:39:00.211Z,222.00
2023-05-23T03:40:00.256Z,239.00
2023-05-23T03:41:00.182Z,257.00
2023-05-23T03:42:00.189Z,272.00
2023-05-23T03:43:00.164Z,293.00
2023-05-23T03:44:00.185Z,314.00
2023-05-23T03:45:00.163Z,338.00
2023-05-23T03:46:00.199Z,362.00
2023-05-23T03:47:00.221Z,380.00
2023-05-23T03:48:00.223Z,406.00
2023-05-23T03:49:00.141Z,430.00
2023-05-23T03:50:00.101Z,459.00
2023-05-23T03:51:00.064Z,480.00
2023-05-23T03:52:00.184Z,509.00
2023-05-23T03:53:00.070Z,535.00
2023-05-23T03:54:00.063Z,558.00
2023-05-23T03:55:00.106Z,587.00
2023-05-23T03:56:00.062Z,610.00
2023-05-23T03:56:59.985Z,632.00
2023-05-23T03:58:00.117Z,662.00
2023-05-23T03:59:00.042Z,694.00
2023-05-23T03:59:59.966Z,721.00
2023-05-23T04:01:01.874Z,742.00
2023-05-23T04:01:59.965Z,778.00
2023-05-23T04:03:00.154Z,802.00
2023-05-23T04:04:00.067Z,831.00
2023-05-23T04:04:59.906Z,857.00
2023-05-23T04:05:59.922Z,885.00
2023-05-23T04:06:59.959Z,905.00
2023-05-23T04:07:59.930Z,936.00
2023-05-23T04:08:59.883Z,973.00
2023-05-23T04:09:59.861Z,1000.00
2023-05-23T04:10:59.992Z,1033.00
2023-05-23T04:11:59.919Z,1050.00
2023-05-23T04:12:59.927Z,1075.00
2023-05-23T04:13:59.805Z,1106.00
2023-05-23T04:14:59.897Z,1142.00
2023-05-23T04:15:59.898Z,1175.00
2023-05-23T04:16:59.913Z,1200.00
2023-05-23T04:17:59.916Z,1236.00
2023-05-23T04:18:59.844Z,1260.00
2023-05-23T04:19:59.811Z,1290.00
2023-05-23T04:20:59.860Z,1319.00
2023-05-23T04:21:59.632Z,1342.00
2023-05-23T04:22:59.992Z,1341.00
2023-05-23T04:23:59.674Z,1409.00
2023-05-23T04:24:59.649Z,1424.00
2023-05-23T04:25:59.572Z,1514.00
2023-05-23T04:26:59.561Z,1489.00
2023-05-23T04:27:59.668Z,1561.00
2023-05-23T04:28:59.565Z,1561.00
2023-05-23T04:29:59.557Z,1522.00
2023-05-23T04:30:59.598Z,1605.00
2023-05-23T04:31:59.546Z,1610.00
2023-05-23T04:32:59.594Z,1616.00
2023-05-23T04:33:59.512Z,1680.00
2023-05-23T04:34:59.476Z,1713.00
2023-05-23T04:35:59.498Z,1748.00
2023-05-23T04:36:59.441Z,1783.00
2023-05-23T04:37:59.444Z,1815.00
2023-05-23T04:38:59.512Z,1838.00
2023-05-23T04:39:59.429Z,1868.00
2023-05-23T04:40:59.437Z,1898.00
2023-05-23T04:41:59.414Z,1978.00
2023-05-23T04:42:59.412Z,2014.00
2023-05-23T04:43:59.412Z,2029.00
2023-05-23T04:44:59.366Z,2035.00
2023-05-23T04:45:59.411Z,2048.00
2023-05-23T04:46:59.422Z,2054.00
2023-05-23T04:47:59.414Z,2071.00
2023-05-23T04:48:59.354Z,2073.00
2023-05-23T04:49:59.324Z,2089.00
2023-05-23T04:50:59.377Z,2140.00
2023-05-23T04:51:59.324Z,2045.00
2023-05-23T04:52:59.280Z,2210.00
2023-05-23T04:53:59.265Z,2190.00
2023-05-23T04:54:59.242Z,2242.00
2023-05-23T04:55:59.277Z,2264.00
2023-05-23T04:56:59.324Z,2203.00
2023-05-23T04:57:59.249Z,2300.00
2023-05-23T04:58:59.219Z,2416.00
2023-05-23T04:59:59.407Z,2417.00
2023-05-23T05:00:59.377Z,2465.00
2023-05-23T05:01:59.231Z,2438.00
2023-05-23T05:02:59.237Z,2318.00
2023-05-23T05:03:59.197Z,2690.00
2023-05-23T05:04:59.371Z,2395.00
2023-05-23T05:05:59.185Z,2584.00
2023-05-23T05:06:59.199Z,2729.00
2023-05-23T05:07:59.158Z,2909.00
2023-05-23T05:08:59.093Z,2618.00
2023-05-23T05:10:01.048Z,3019.00
2023-05-23T05:10:59.087Z,2868.00
2023-05-23T05:11:59.119Z,2807.00
2023-05-23T05:12:59.092Z,2868.00
2023-05-23T05:13:59.063Z,2842.00
2023-05-23T05:14:59.027Z,2867.00
2023-05-23T05:15:59.056Z,2944.00
2023-05-23T05:16:59.031Z,3028.00
2023-05-23T05:17:59.075Z,3023.00
2023-05-23T05:18:59.079Z,3055.00
2023-05-23T05:19:58.986Z,3082.00
2023-05-23T05:20:59.114Z,3177.00
2023-05-23T05:21:58.996Z,3205.00
2023-05-23T05:22:58.993Z,3138.00
2023-05-23T05:23:58.933Z,3132.00
2023-05-23T05:24:58.950Z,3134.00
2023-05-23T05:25:58.949Z,3096.00
2023-05-23T05:26:58.909Z,3126.00
2023-05-23T05:27:58.938Z,3163.00
2023-05-23T05:28:58.889Z,3163.00
2023-05-23T05:29:58.875Z,3200.00
2023-05-23T05:30:58.914Z,3233.00
2023-05-23T05:31:58.866Z,3253.00
2023-05-23T05:32:58.872Z,3247.00
2023-05-23T05:33:58.840Z,3174.00
2023-05-23T05:34:58.844Z,3328.00
2023-05-23T05:35:58.829Z,3324.00
2023-05-23T05:36:58.820Z,3150.00
2023-05-23T05:37:58.786Z,2820.00
2023-05-23T05:38:58.810Z,2987.00
2023-05-23T05:39:58.785Z,2944.00
2023-05-23T05:40:58.797Z,2716.00
2023-05-23T05:41:58.776Z,2591.00
2023-05-23T05:42:58.779Z,2392.00
2023-05-23T05:43:58.729Z,2198.00
2023-05-23T05:44:58.778Z,2067.00
2023-05-23T05:45:58.779Z,1988.00
2023-05-23T05:46:58.700Z,2001.00
2023-05-23T05:47:58.758Z,2070.00
2023-05-23T05:48:58.690Z,2064.00
2023-05-23T05:49:58.686Z,2386.00
2023-05-23T05:50:58.735Z,2719.00
2023-05-23T05:51:58.651Z,2633.00
2023-05-23T05:52:58.636Z,3002.00
2023-05-23T05:53:58.624Z,3189.00
2023-05-23T05:54:58.672Z,3057.00
2023-05-23T05:55:58.605Z,2828.00
2023-05-23T05:56:58.590Z,2690.00
2023-05-23T05:57:58.618Z,2565.00
2023-05-23T05:58:58.601Z,2770.00
2023-05-23T05:59:58.582Z,3028.00
2023-05-23T06:00:58.563Z,2754.00
2023-05-23T06:01:58.538Z,2842.00
2023-05-23T06:02:58.611Z,2811.00
2023-05-23T06:03:58.775Z,2522.00
2023-05-23T06:04:58.599Z,2393.00
2023-05-23T06:05:58.543Z,2245.00
2023-05-23T06:06:58.523Z,2352.00
2023-05-23T06:07:58.543Z,2401.00
2023-05-23T06:08:58.475Z,1903.00
2023-05-23T06:09:58.473Z,1639.00
2023-05-23T06:10:58.471Z,1362.00
2023-05-23T06:11:58.488Z,1364.00
2023-05-23T06:12:58.465Z,1466.00
2023-05-23T06:13:58.436Z,1261.00
2023-05-23T06:14:58.477Z,1497.00
2023-05-23T06:15:58.534Z,1818.00
2023-05-23T06:16:58.382Z,1606.00
2023-05-23T06:17:58.454Z,1642.00
2023-05-23T06:18:58.437Z,1492.00
2023-05-23T06:19:58.360Z,1196.00
2023-05-23T06:20:58.360Z,1387.00
2023-05-23T06:21:58.333Z,1442.00
2023-05-23T06:22:58.322Z,1493.00
2023-05-23T06:23:58.319Z,1516.00
2023-05-23T06:24:58.317Z,1405.00
2023-05-23T06:25:58.288Z,1388.00
2023-05-23T06:26:58.265Z,1366.00
2023-05-23T06:27:58.319Z,1711.00
2023-05-23T06:28:58.332Z,1645.00
2023-05-23T06:29:58.251Z,1648.00
2023-05-23T06:30:58.255Z,1987.00
2023-05-23T06:31:58.294Z,1831.00
2023-05-23T06:32:58.323Z,1834.00
2023-05-23T06:33:58.215Z,1819.00
2023-05-23T06:34:58.230Z,1643.00
2023-05-23T06:35:58.179Z,1544.00
2023-05-23T06:36:58.161Z,1556.00
2023-05-23T06:37:58.195Z,1586.00
2023-05-23T06:38:58.154Z,1427.00
2023-05-23T06:39:58.155Z,1820.00
2023-05-23T06:40:58.148Z,1961.00
2023-05-23T06:41:58.167Z,2019.00
2023-05-23T06:42:58.148Z,1939.00
2023-05-23T06:43:58.099Z,2085.00
2023-05-23T06:44:58.084Z,2262.00
2023-05-23T06:45:58.126Z,1995.00
2023-05-23T06:46:58.072Z,2299.00
2023-05-23T06:47:58.064Z,1870.00
2023-05-23T06:49:06.953Z,1740.00
2023-05-23T06:49:58.074Z,2032.00
2023-05-23T06:50:58.066Z,2636.00
2023-05-23T06:51:58.047Z,2878.00
2023-05-23T06:52:58.027Z,2796.00
2023-05-23T06:53:58.004Z,3190.00
2023-05-23T06:54:58.007Z,3448.00
2023-05-23T06:55:57.964Z,3400.00
2023-05-23T06:56:57.995Z,4111.00
2023-05-23T06:57:57.973Z,4453.00
2023-05-23T06:58:57.956Z,3954.00
2023-05-23T06:59:57.925Z,5184.00
2023-05-23T07:00:57.952Z,5368.00
2023-05-23T07:01:57.932Z,5899.00
2023-05-23T07:02:57.904Z,6280.00
2023-05-23T07:03:57.891Z,7069.00
2023-05-23T07:04:57.939Z,7225.00
2023-05-23T07:05:57.892Z,7422.00
2023-05-23T07:06:57.874Z,7458.00
2023-05-23T07:07:57.831Z,7742.00
2023-05-23T07:08:57.862Z,7989.00
2023-05-23T07:09:57.812Z,8143.00
2023-05-23T07:10:57.838Z,8021.00
2023-05-23T07:11:57.837Z,8220.00
2023-05-23T07:12:57.793Z,8062.00
2023-05-23T07:13:57.796Z,8148.00
2023-05-23T07:14:57.771Z,8179.00
2023-05-23T07:15:57.897Z,8148.00
2023-05-23T07:16:57.765Z,8368.00
2023-05-23T07:17:57.759Z,8581.00
2023-05-23T07:18:57.755Z,8300.00
2023-05-23T07:19:57.740Z,8819.00
2023-05-23T07:20:57.745Z,9364.00
2023-05-23T07:21:57.705Z,9172.00
2023-05-23T07:22:57.763Z,8926.00
2023-05-23T07:23:57.669Z,8246.00
2023-05-23T07:24:57.692Z,10010.00
2023-05-23T07:26:02.423Z,7071.00
2023-05-23T07:26:57.638Z,7871.00
2023-05-23T07:27:57.662Z,7475.00
2023-05-23T07:28:57.689Z,7548.00
2023-05-23T07:29:57.629Z,5651.00
2023-05-23T07:30:57.747Z,9811.00
2023-05-23T07:31:57.590Z,6931.00
2023-05-23T07:32:57.618Z,5648.00
2023-05-23T07:33:59.418Z,7911.00
2023-05-23T07:34:57.575Z,6981.00
2023-05-23T07:35:57.556Z,8878.00
2023-05-23T07:36:57.555Z,8385.00
2023-05-23T07:37:57.526Z,7527.00
2023-05-23T07:38:57.527Z,7378.00
2023-05-23T07:39:57.642Z,6636.00
2023-05-23T07:41:09.963Z,9065.00
2023-05-23T07:41:57.484Z,11556.00
2023-05-23T07:42:57.482Z,6916.00
2023-05-23T07:43:57.491Z,2912.00
2023-05-23T07:44:57.455Z,7617.00
2023-05-23T07:45:57.458Z,7360.00
2023-05-23T07:46:57.575Z,8432.00
2023-05-23T07:47:57.558Z,6709.00
2023-05-23T07:48:57.422Z,7282.00
2023-05-23T07:49:57.366Z,5839.00
2023-05-23T07:50:57.374Z,5934.00
2023-05-23T07:51:57.400Z,5304.00
2023-05-23T07:52:57.363Z,4167.00
2023-05-23T07:53:57.401Z,5085.00
2023-05-23T07:54:57.379Z,5317.00
2023-05-23T07:55:57.332Z,4372.00
2023-05-23T07:56:57.335Z,6625.00
2023-05-23T07:57:57.334Z,5582.00
2023-05-23T07:58:57.346Z,8845.00
2023-05-23T07:59:57.386Z,7372.00
2023-05-23T08:00:57.284Z,6992.00
2023-05-23T08:01:57.324Z,7636.00
2023-05-23T08:02:57.345Z,7696.00
2023-05-23T08:03:57.269Z,7896.00
2023-05-23T08:04:57.259Z,6643.00
2023-05-23T08:05:57.243Z,7841.00
2023-05-23T08:07:57.185Z,8959.00
2023-05-23T08:08:57.191Z,6070.00
2023-05-23T08:09:57.181Z,9945.00
2023-05-23T08:10:57.168Z,8005.00
2023-05-23T08:11:57.152Z,5264.00
2023-05-23T08:12:57.166Z,14614.00
2023-05-23T08:13:58.447Z,12114.00
2023-05-23T08:14:57.144Z,10258.00
2023-05-23T08:15:57.154Z,9346.00
2023-05-23T08:16:57.368Z,8655.00
2023-05-23T08:17:57.450Z,7909.00
2023-05-23T08:18:57.163Z,9051.00
2023-05-23T08:19:57.123Z,9464.00
2023-05-23T08:20:57.180Z,10792.00
2023-05-23T08:21:57.060Z,11410.00
2023-05-23T08:22:57.069Z,11980.00
2023-05-23T08:23:57.065Z,13478.00
2023-05-23T08:24:57.032Z,13306.00
2023-05-23T08:25:57.015Z,11725.00
2023-05-23T08:26:57.046Z,12708.00
2023-05-23T08:27:57.062Z,12650.00
2023-05-23T08:28:56.980Z,15184.00
2023-05-23T08:29:57.062Z,13435.00
2023-05-23T08:30:56.957Z,17154.00
2023-05-23T08:31:57.041Z,13297.00
2023-05-23T08:32:57.052Z,19977.00
2023-05-23T08:33:56.928Z,14976.00
2023-05-23T08:34:56.934Z,13515.00
2023-05-23T08:35:56.897Z,16631.00
2023-05-23T08:36:56.877Z,14422.00
2023-05-23T08:37:56.884Z,13350.00
2023-05-23T08:38:56.876Z,15879.00
2023-05-23T08:39:56.885Z,16776.00
2023-05-23T08:40:56.883Z,15431.00
2023-05-23T08:41:56.907Z,15332.00
2023-05-23T08:42:56.849Z,14502.00
2023-05-23T08:43:56.862Z,5551.00
2023-05-23T08:44:56.870Z,15328.00
2023-05-23T08:45:56.968Z,12994.00
2023-05-23T08:46:56.837Z,20565.00
2023-05-23T08:47:56.832Z,10060.00
2023-05-23T08:48:56.824Z,18094.00
2023-05-23T08:49:56.787Z,4455.00
2023-05-23T08:50:56.754Z,19391.00
2023-05-23T08:51:56.759Z,15783.00
2023-05-23T08:52:56.804Z,15151.00
2023-05-23T08:53:57.489Z,21978.00
2023-05-23T08:54:56.753Z,18231.00
2023-05-23T08:55:56.681Z,13501.00
2023-05-23T08:56:56.718Z,13355.00
2023-05-23T08:57:56.707Z,25564.00
2023-05-23T08:58:56.737Z,16510.00
2023-05-23T08:59:56.665Z,8951.00
2023-05-23T09:00:56.666Z,12018.00
2023-05-23T09:01:56.780Z,20408.00
2023-05-23T09:02:56.667Z,12832.00
2023-05-23T09:03:56.635Z,9976.00
2023-05-23T09:04:56.642Z,8314.00
2023-05-23T09:05:56.727Z,7109.00
2023-05-23T09:06:56.596Z,6081.00
2023-05-23T09:07:56.567Z,4852.00
2023-05-23T09:08:56.546Z,4157.00
2023-05-23T09:09:56.600Z,4116.00
2023-05-23T09:10:56.554Z,4035.00
2023-05-23T09:11:56.548Z,4515.00
2023-05-23T09:12:56.527Z,5030.00
2023-05-23T09:13:56.499Z,5080.00
2023-05-23T09:14:56.501Z,5083.00
2023-05-23T09:15:56.526Z,5016.00
2023-05-23T09:16:56.505Z,5026.00
2023-05-23T09:17:56.515Z,5305.00
2023-05-23T09:18:56.535Z,5850.00
2023-05-23T09:19:56.465Z,6623.00
2023-05-23T09:20:56.436Z,6730.00
2023-05-23T09:21:56.445Z,6748.00
2023-05-23T09:22:56.435Z,7180.00
2023-05-23T09:23:56.432Z,75590.00
2023-05-23T09:24:56.411Z,78273.00
2023-05-23T09:25:56.399Z,79688.00
2023-05-23T09:26:56.355Z,62424.00
2023-05-23T09:27:56.352Z,15170.00
2023-05-23T09:28:56.408Z,10811.00
2023-05-23T09:29:56.355Z,9401.00
2023-05-23T09:30:56.374Z,6504.00
2023-05-23T09:31:56.375Z,18229.00
2023-05-23T09:32:56.391Z,13832.00
2023-05-23T09:33:56.303Z,10813.00
2023-05-23T09:34:56.371Z,11955.00
2023-05-23T09:35:56.333Z,10722.00
2023-05-23T09:36:56.255Z,9607.00
2023-05-23T09:37:56.256Z,9056.00
2023-05-23T09:38:56.237Z,11803.00
2023-05-23T09:39:56.259Z,10199.00
2023-05-23T09:40:56.249Z,9297.00
2023-05-23T09:41:56.240Z,8940.00
2023-05-23T09:42:56.208Z,8681.00
2023-05-23T09:43:56.215Z,8765.00
2023-05-23T09:44:56.188Z,9246.00
2023-05-23T09:45:56.163Z,8550.00
2023-05-23T09:46:56.217Z,8004.00
2023-05-23T09:47:56.166Z,7768.00
2023-05-23T09:48:56.160Z,7992.00
2023-05-23T09:49:56.160Z,8434.00
2023-05-23T09:50:56.156Z,8824.00
2023-05-23T09:51:56.117Z,8774.00
2023-05-23T09:52:56.098Z,8756.00
2023-05-23T09:53:56.088Z,8501.00
2023-05-23T09:54:56.081Z,8618.00
2023-05-23T09:55:56.059Z,9381.00
2023-05-23T09:56:56.185Z,9891.00
2023-05-23T09:57:56.221Z,9405.00
2023-05-23T09:58:56.132Z,11980.00
2023-05-23T09:59:56.032Z,11269.00
2023-05-23T10:00:56.085Z,13044.00
2023-05-23T10:01:56.012Z,12318.00
2023-05-23T10:02:56.181Z,16865.00
2023-05-23T10:03:58.779Z,14759.00
2023-05-23T10:04:56.013Z,14369.00
2023-05-23T10:05:55.953Z,10543.00
2023-05-23T10:06:55.943Z,9261.00
2023-05-23T10:07:55.944Z,7674.00
2023-05-23T10:08:55.975Z,6338.00
2023-05-23T10:09:58.218Z,6048.00
2023-05-23T10:10:56.020Z,5794.00
2023-05-23T10:11:55.898Z,5411.00
2023-05-23T10:12:55.898Z,5315.00
2023-05-23T10:13:55.884Z,5104.00
2023-05-23T10:14:55.930Z,4942.00
2023-05-23T10:15:56.635Z,4785.00
2023-05-23T10:16:55.910Z,4424.00
2023-05-23T10:17:55.932Z,4170.00
2023-05-23T10:18:55.869Z,4269.00
2023-05-23T10:19:55.820Z,4280.00
2023-05-23T10:20:55.833Z,4431.00
2023-05-23T10:21:55.836Z,5059.00
2023-05-23T10:22:55.801Z,5122.00
2023-05-23T10:23:55.793Z,5252.00
2023-05-23T10:24:55.804Z,6012.00
2023-05-23T10:25:55.877Z,6488.00
2023-05-23T10:26:55.768Z,7150.00
2023-05-23T10:27:55.833Z,7843.00
2023-05-23T10:28:55.821Z,7167.00
2023-05-23T10:29:55.743Z,8097.00
2023-05-23T10:30:55.732Z,9842.00
2023-05-23T10:31:55.705Z,9122.00
2023-05-23T10:32:55.748Z,10825.00
2023-05-23T10:33:55.877Z,6580.00
2023-05-23T10:34:55.679Z,11161.00
2023-05-23T10:35:55.708Z,18527.00
2023-05-23T10:36:55.636Z,17660.00
2023-05-23T10:37:55.717Z,14627.00
2023-05-23T10:38:55.628Z,29277.00
2023-05-23T10:39:55.638Z,19958.00
2023-05-23T10:40:55.615Z,7484.00
2023-05-23T10:41:55.628Z,65470.00
2023-05-23T10:42:55.749Z,17100.00
2023-05-23T10:43:55.637Z,21347.00
2023-05-23T10:44:55.550Z,14407.00
2023-05-23T10:45:55.681Z,13355.00
2023-05-23T10:46:55.601Z,8692.00
2023-05-23T10:47:55.533Z,6185.00
2023-05-23T10:48:55.556Z,5230.00
2023-05-23T10:49:55.510Z,5521.00
2023-05-23T10:50:55.500Z,6883.00
2023-05-23T10:51:55.610Z,8083.00
2023-05-23T10:52:55.675Z,8349.00
2023-05-23T10:53:55.477Z,7704.00
2023-05-23T10:54:55.476Z,6895.00
2023-05-23T10:55:55.438Z,6483.00
2023-05-23T10:56:55.538Z,6144.00
2023-05-23T10:57:55.416Z,6073.00
2023-05-23T10:58:55.437Z,5943.00
2023-05-23T10:59:55.495Z,5689.00
2023-05-23T11:00:55.421Z,5321.00
2023-05-23T11:01:55.428Z,4885.00
2023-05-23T11:02:55.587Z,4661.00
2023-05-23T11:03:56.197Z,4562.00
2023-05-23T11:04:55.514Z,4342.00
2023-05-23T11:05:55.364Z,4425.00
2023-05-23T11:06:55.380Z,4153.00
2023-05-23T11:07:55.308Z,3985.00
2023-05-23T11:08:55.502Z,4467.00
2023-05-23T11:09:55.306Z,5128.00
2023-05-23T11:10:55.293Z,5553.00
2023-05-23T11:11:55.395Z,5904.00
2023-05-23T11:12:55.291Z,6303.00
2023-05-23T11:13:55.297Z,6747.00
2023-05-23T11:14:56.012Z,7156.00
2023-05-23T11:15:55.452Z,7526.00
2023-05-23T11:16:55.297Z,7847.00
2023-05-23T11:17:55.269Z,8018.00
2023-05-23T11:18:55.229Z,8162.00
2023-05-23T11:19:55.287Z,8382.00
2023-05-23T11:20:55.354Z,8714.00
2023-05-23T11:21:55.209Z,8857.00
2023-05-23T11:22:55.207Z,9101.00
2023-05-23T11:23:55.245Z,9280.00
2023-05-23T11:24:55.159Z,9300.00
2023-05-23T11:25:55.130Z,9364.00
2023-05-23T11:26:55.185Z,9375.00
2023-05-23T11:27:55.145Z,9397.00
2023-05-23T11:28:55.101Z,9573.00
2023-05-23T11:29:55.110Z,10128.00
2023-05-23T11:30:55.091Z,9957.00
2023-05-23T11:31:55.078Z,9810.00
2023-05-23T11:32:55.105Z,10891.00
2023-05-23T11:33:55.068Z,11205.00
2023-05-23T11:34:55.027Z,11976.00
2023-05-23T11:35:55.082Z,12354.00
2023-05-23T11:36:55.041Z,11932.00
2023-05-23T11:37:55.130Z,12113.00
2023-05-23T11:38:54.984Z,12597.00
2023-05-23T11:39:55.041Z,13197.00
2023-05-23T11:40:54.975Z,14212.00
2023-05-23T11:41:55.035Z,14811.00
2023-05-23T11:42:55.020Z,13436.00
2023-05-23T11:43:54.999Z,12008.00
2023-05-23T11:44:55.010Z,11952.00
2023-05-23T11:45:55.023Z,11781.00
2023-05-23T11:46:54.885Z,11003.00
2023-05-23T11:47:55.034Z,10714.00
2023-05-23T11:48:55.175Z,10816.00
2023-05-23T11:49:54.887Z,11042.00
2023-05-23T11:50:54.994Z,11342.00
2023-05-23T11:51:54.868Z,11389.00
2023-05-23T11:52:54.904Z,11485.00
2023-05-23T11:53:54.862Z,11162.00
2023-05-23T11:54:56.736Z,11458.00
2023-05-23T11:55:54.847Z,11625.00
2023-05-23T11:56:54.861Z,11544.00
2023-05-23T11:57:54.827Z,11703.00
2023-05-23T11:58:54.875Z,13059.00
2023-05-23T11:59:54.766Z,13400.00
2023-05-23T12:00:55.446Z,15078.00
2023-05-23T12:01:54.771Z,15870.00
2023-05-23T12:02:54.816Z,17825.00
2023-05-23T12:03:54.825Z,19708.00
2023-05-23T12:04:54.861Z,18610.00
2023-05-23T12:05:54.792Z,16935.00
2023-05-23T12:06:54.678Z,14577.00
2023-05-23T12:07:54.686Z,12037.00
2023-05-23T12:08:54.683Z,11685.00
2023-05-23T12:09:54.905Z,10689.00
2023-05-23T12:10:54.635Z,8779.00
2023-05-23T12:11:54.933Z,6416.00
2023-05-23T12:12:54.703Z,32579.00
2023-05-23T12:13:54.618Z,32606.00
2023-05-23T12:14:54.603Z,17175.00
2023-05-23T12:15:54.595Z,19791.00
2023-05-23T12:16:54.803Z,17019.00
2023-05-23T12:17:54.603Z,15606.00
2023-05-23T12:18:54.635Z,14525.00
2023-05-23T12:19:54.598Z,14896.00
2023-05-23T12:20:54.588Z,15588.00
2023-05-23T12:21:54.519Z,14615.00